createdAt,value
2024-01-10T00:00:54.284Z,27.12
2024-01-10T00:01:54.306Z,27.12
2024-01-10T00:02:54.332Z,27.12
2024-01-10T00:03:54.401Z,27.13
2024-01-10T00:04:54.432Z,27.13
2024-01-10T00:05:54.479Z,27.14
2024-01-10T00:06:54.503Z,27.14
2024-01-10T00:07:54.641Z,27.14
2024-01-10T00:08:54.585Z,27.15
2024-01-10T00:09:54.614Z,27.15
2024-01-10T00:10:54.710Z,27.15
2024-01-10T00:11:54.716Z,27.16
2024-01-10T00:12:54.781Z,27.16
2024-01-10T00:13:54.866Z,27.17
2024-01-10T00:14:54.860Z,27.16
2024-01-10T00:15:54.902Z,27.16
2024-01-10T00:16:55.012Z,27.17
2024-01-10T00:17:55.051Z,27.18
2024-01-10T00:18:55.128Z,27.17
2024-01-10T00:19:55.203Z,27.17
2024-01-10T00:20:55.266Z,27.19
2024-01-10T00:21:55.344Z,27.19
2024-01-10T00:22:55.396Z,27.19
2024-01-10T00:23:55.424Z,27.18
2024-01-10T00:24:55.507Z,27.19
2024-01-10T00:25:55.572Z,27.19
2024-01-10T00:26:55.585Z,27.18
2024-01-10T00:27:55.593Z,27.18
2024-01-10T00:29:01.527Z,27.18
2024-01-10T00:29:56.693Z,27.18
2024-01-10T00:30:55.775Z,27.19
2024-01-10T00:31:55.671Z,27.20
2024-01-10T00:32:55.722Z,27.19
2024-01-10T00:33:55.779Z,27.19
2024-01-10T00:34:55.751Z,27.19
2024-01-10T00:35:55.705Z,27.21
2024-01-10T00:36:55.709Z,27.21
2024-01-10T00:37:55.748Z,27.20
2024-01-10T00:38:55.829Z,27.20
2024-01-10T00:39:55.937Z,27.20
2024-01-10T00:40:55.983Z,27.20
2024-01-10T00:41:55.999Z,27.20
2024-01-10T00:42:56.038Z,27.20
2024-01-10T00:43:56.089Z,27.20
2024-01-10T00:44:56.191Z,27.20
2024-01-10T00:45:56.328Z,27.20
2024-01-10T00:46:56.309Z,27.20
2024-01-10T00:47:56.440Z,27.20
2024-01-10T00:48:56.431Z,27.21
2024-01-10T00:49:56.506Z,27.20
2024-01-10T00:50:56.522Z,27.20
2024-01-10T00:51:56.576Z,27.21
2024-01-10T00:52:56.707Z,27.21
2024-01-10T00:53:56.749Z,27.22
2024-01-10T00:54:56.824Z,27.22
2024-01-10T00:55:56.916Z,27.22
2024-01-10T00:56:56.920Z,27.22
2024-01-10T00:57:56.976Z,27.22
2024-01-10T00:58:57.085Z,27.22
2024-01-10T00:59:57.155Z,27.21
2024-01-10T01:00:57.259Z,27.20
2024-01-10T01:01:57.278Z,27.21
2024-01-10T01:02:57.389Z,27.21
2024-01-10T01:03:57.379Z,27.21
2024-01-10T01:04:57.562Z,27.20
2024-01-10T01:05:57.588Z,27.21
2024-01-10T01:06:57.592Z,27.22
2024-01-10T01:07:57.717Z,27.20
2024-01-10T01:08:57.710Z,27.20
2024-01-10T01:09:57.775Z,27.20
2024-01-10T01:10:57.846Z,27.20
2024-01-10T01:11:57.908Z,27.20
2024-01-10T01:12:58.011Z,27.20
2024-01-10T01:13:58.134Z,27.20
2024-01-10T01:14:58.094Z,27.20
2024-01-10T01:15:58.134Z,27.20
2024-01-10T01:16:58.214Z,27.19
2024-01-10T01:17:58.266Z,27.20
2024-01-10T01:18:58.348Z,27.19
2024-01-10T01:19:58.406Z,27.19
2024-01-10T01:20:58.426Z,27.20
2024-01-10T01:21:58.453Z,27.20
2024-01-10T01:22:58.560Z,27.20
2024-01-10T01:23:58.592Z,27.19
2024-01-10T01:24:58.592Z,27.20
2024-01-10T01:25:58.684Z,27.20
2024-01-10T01:26:58.727Z,27.20
2024-01-10T01:27:58.784Z,27.19
2024-01-10T01:28:58.876Z,27.19
2024-01-10T01:29:58.908Z,27.18
2024-01-10T01:30:59.046Z,27.18
2024-01-10T01:31:59.070Z,27.19
2024-01-10T01:32:59.176Z,27.18
2024-01-10T01:33:59.206Z,27.18
2024-01-10T01:34:59.292Z,27.18
2024-01-10T01:35:59.300Z,27.18
2024-01-10T01:36:59.336Z,27.18
2024-01-10T01:37:59.464Z,27.18
2024-01-10T01:38:59.449Z,27.17
2024-01-10T01:39:59.527Z,27.17
2024-01-10T01:40:59.670Z,27.16
2024-01-10T01:41:59.686Z,27.16
2024-01-10T01:42:59.860Z,27.16
2024-01-10T01:43:59.796Z,27.16
2024-01-10T01:44:59.799Z,27.16
2024-01-10T01:45:59.898Z,27.17
2024-01-10T01:46:59.966Z,27.17
2024-01-10T01:48:00.319Z,27.16
2024-01-10T01:49:00.183Z,27.17
2024-01-10T01:50:00.263Z,27.17
2024-01-10T01:51:00.151Z,27.16
2024-01-10T01:52:00.251Z,27.16
2024-01-10T01:53:00.497Z,27.16
2024-01-10T01:54:00.383Z,27.16
2024-01-10T01:55:00.443Z,27.15
2024-01-10T01:56:00.560Z,27.15
2024-01-10T01:57:00.578Z,27.14
2024-01-10T01:58:00.697Z,27.14
2024-01-10T01:59:00.788Z,27.15
2024-01-10T02:00:00.875Z,27.14
2024-01-10T02:01:00.854Z,27.14
2024-01-10T02:02:01.032Z,27.14
2024-01-10T02:03:01.169Z,27.14
2024-01-10T02:04:01.099Z,27.13
2024-01-10T02:05:01.218Z,27.12
2024-01-10T02:06:01.266Z,27.13
2024-01-10T02:07:01.279Z,27.13
2024-01-10T02:08:01.330Z,27.12
2024-01-10T02:09:01.297Z,27.12
2024-01-10T02:10:01.335Z,27.12
2024-01-10T02:11:01.370Z,27.12
2024-01-10T02:12:01.419Z,27.11
2024-01-10T02:13:01.459Z,27.11
2024-01-10T02:14:01.532Z,27.11
2024-01-10T02:15:01.546Z,27.10
2024-01-10T02:16:01.604Z,27.10
2024-01-10T02:17:01.639Z,27.11
2024-01-10T02:18:01.722Z,27.10
2024-01-10T02:19:01.717Z,27.09
2024-01-10T02:20:01.831Z,27.09
2024-01-10T02:21:01.788Z,27.09
2024-01-10T02:22:01.814Z,27.08
2024-01-10T02:23:01.935Z,27.09
2024-01-10T02:24:01.883Z,27.08
2024-01-10T02:25:01.914Z,27.08
2024-01-10T02:26:01.976Z,27.08
2024-01-10T02:27:01.925Z,27.08
2024-01-10T02:28:01.936Z,27.07
2024-01-10T02:29:02.003Z,27.07
2024-01-10T02:30:01.987Z,27.07
2024-01-10T02:31:02.012Z,27.07
2024-01-10T02:32:02.049Z,27.06
2024-01-10T02:33:02.097Z,27.06
2024-01-10T02:34:02.018Z,27.06
2024-01-10T02:35:02.069Z,27.06
2024-01-10T02:36:02.017Z,27.06
2024-01-10T02:37:02.029Z,27.06
2024-01-10T02:38:02.148Z,27.06
2024-01-10T02:39:02.163Z,27.05
2024-01-10T02:40:02.103Z,27.05
2024-01-10T02:41:02.156Z,27.05
2024-01-10T02:42:02.108Z,27.05
2024-01-10T02:43:02.097Z,27.04
2024-01-10T02:44:02.182Z,27.04
2024-01-10T02:45:02.128Z,27.04
2024-01-10T02:46:02.176Z,27.04
2024-01-10T02:47:02.211Z,27.04
2024-01-10T02:48:02.265Z,27.03
2024-01-10T02:49:02.346Z,27.02
2024-01-10T02:50:02.261Z,27.02
2024-01-10T02:51:02.246Z,27.03
2024-01-10T02:52:02.268Z,27.03
2024-01-10T02:53:02.310Z,27.02
2024-01-10T02:54:02.276Z,27.02
2024-01-10T02:55:02.299Z,27.02
2024-01-10T02:56:02.318Z,27.01
2024-01-10T02:57:02.273Z,27.00
2024-01-10T02:58:02.319Z,27.00
2024-01-10T02:59:02.371Z,27.00
2024-01-10T03:00:02.385Z,26.99
2024-01-10T03:01:02.393Z,27.00
2024-01-10T03:02:02.347Z,26.99
2024-01-10T03:03:02.378Z,26.99
2024-01-10T03:04:02.416Z,26.98
2024-01-10T03:05:02.423Z,26.97
2024-01-10T03:06:02.404Z,26.98
2024-01-10T03:07:02.377Z,26.98
2024-01-10T03:08:02.456Z,26.97
2024-01-10T03:09:02.407Z,26.96
2024-01-10T03:10:03.421Z,26.95
2024-01-10T03:11:02.440Z,26.96
2024-01-10T03:12:02.450Z,26.95
2024-01-10T03:13:02.407Z,26.95
2024-01-10T03:14:02.465Z,26.95
2024-01-10T03:15:02.440Z,26.94
2024-01-10T03:16:02.436Z,26.94
2024-01-10T03:17:02.580Z,26.94
2024-01-10T03:18:02.494Z,26.93
2024-01-10T03:19:02.461Z,26.92
2024-01-10T03:20:02.430Z,26.92
2024-01-10T03:21:02.417Z,26.92
2024-01-10T03:22:02.363Z,26.92
2024-01-10T03:23:02.395Z,26.92
2024-01-10T03:24:02.379Z,26.92
2024-01-10T03:25:02.399Z,26.91
2024-01-10T03:26:02.444Z,26.91
2024-01-10T03:27:02.408Z,26.91
2024-01-10T03:28:02.410Z,26.91
2024-01-10T03:29:02.443Z,26.90
2024-01-10T03:30:02.411Z,26.89
2024-01-10T03:31:02.490Z,26.89
2024-01-10T03:32:02.415Z,26.88
2024-01-10T03:33:02.520Z,26.88
2024-01-10T03:34:02.532Z,26.87
2024-01-10T03:35:02.596Z,26.88
2024-01-10T03:36:02.468Z,26.87
2024-01-10T03:37:02.466Z,26.86
2024-01-10T03:38:02.526Z,26.87
2024-01-10T03:39:02.533Z,26.87
2024-01-10T03:40:02.527Z,26.86
2024-01-10T03:41:02.583Z,26.85
2024-01-10T03:42:02.608Z,26.84
2024-01-10T03:43:02.606Z,26.84
2024-01-10T03:44:02.673Z,26.84
2024-01-10T03:45:02.657Z,26.83
2024-01-10T03:46:02.631Z,26.83
2024-01-10T03:47:02.666Z,26.83
2024-01-10T03:48:02.679Z,26.82
2024-01-10T03:49:02.737Z,26.82
2024-01-10T03:50:02.783Z,26.82
2024-01-10T03:51:02.725Z,26.81
2024-01-10T03:52:02.735Z,26.81
2024-01-10T03:53:02.872Z,26.81
2024-01-10T03:54:02.787Z,26.81
2024-01-10T03:55:02.804Z,26.81
2024-01-10T03:56:02.826Z,26.80
2024-01-10T03:57:02.816Z,26.80
2024-01-10T03:58:02.845Z,26.80
2024-01-10T03:59:02.866Z,26.79
2024-01-10T04:00:02.900Z,26.79
2024-01-10T04:01:02.910Z,26.78
2024-01-10T04:02:02.979Z,26.77
2024-01-10T04:03:02.933Z,26.78
2024-01-10T04:04:02.945Z,26.77
2024-01-10T04:05:03.053Z,26.76
2024-01-10T04:06:02.982Z,26.76
2024-01-10T04:07:02.974Z,26.75
2024-01-10T04:08:03.152Z,26.75
2024-01-10T04:09:03.011Z,26.74
2024-01-10T04:10:03.001Z,26.74
2024-01-10T04:11:03.061Z,26.74
2024-01-10T04:12:03.067Z,26.73
2024-01-10T04:13:03.088Z,26.73
2024-01-10T04:14:03.096Z,26.73
2024-01-10T04:15:03.087Z,26.73
2024-01-10T04:16:03.152Z,26.73
2024-01-10T04:17:03.268Z,26.72
2024-01-10T04:18:03.177Z,26.72
2024-01-10T04:19:03.177Z,26.71
2024-01-10T04:20:03.279Z,26.71
2024-01-10T04:21:03.261Z,26.71
2024-01-10T04:22:03.184Z,26.71
2024-01-10T04:23:10.465Z,26.68
2024-01-10T04:24:10.419Z,26.68
2024-01-10T04:25:10.430Z,26.69
2024-01-10T04:26:10.456Z,26.68
2024-01-10T04:27:11.190Z,26.67
2024-01-10T04:28:10.429Z,26.67
2024-01-10T04:29:10.488Z,26.66
2024-01-10T04:30:10.524Z,26.66
2024-01-10T04:31:17.726Z,26.63
2024-01-10T04:32:17.762Z,26.64
2024-01-10T04:33:17.808Z,26.64
2024-01-10T04:34:17.857Z,26.64
2024-01-10T04:35:17.755Z,26.64
2024-01-10T04:36:17.726Z,26.63
2024-01-10T04:37:17.750Z,26.63
2024-01-10T04:38:17.835Z,26.63
2024-01-10T04:39:17.770Z,26.62
2024-01-10T04:40:17.755Z,26.62
2024-01-10T04:41:17.929Z,26.62
2024-01-10T04:42:17.729Z,26.62
2024-01-10T04:43:17.770Z,26.61
2024-01-10T04:44:17.770Z,26.61
2024-01-10T04:45:17.740Z,26.61
2024-01-10T04:46:17.754Z,26.60
2024-01-10T04:47:17.779Z,26.61
2024-01-10T04:48:17.829Z,26.60
2024-01-10T04:49:17.784Z,26.60
2024-01-10T04:50:17.819Z,26.59
2024-01-10T04:51:17.788Z,26.60
2024-01-10T04:52:17.760Z,26.59
2024-01-10T04:53:17.776Z,26.59
2024-01-10T04:54:17.777Z,26.58
2024-01-10T04:55:17.776Z,26.57
2024-01-10T04:56:17.755Z,26.56
2024-01-10T04:57:17.774Z,26.55
2024-01-10T04:58:17.758Z,26.56
2024-01-10T04:59:17.829Z,26.55
2024-01-10T05:00:17.755Z,26.55
2024-01-10T05:01:17.868Z,26.55
2024-01-10T05:02:17.805Z,26.55
2024-01-10T05:03:17.778Z,26.54
2024-01-10T05:04:17.760Z,26.52
2024-01-10T05:05:17.837Z,26.50
2024-01-10T05:06:17.802Z,26.49
2024-01-10T05:07:17.773Z,26.47
2024-01-10T05:08:17.858Z,26.45
2024-01-10T05:09:17.814Z,26.44
2024-01-10T05:10:17.764Z,26.43
2024-01-10T05:11:17.866Z,26.43
2024-01-10T05:12:17.747Z,26.43
2024-01-10T05:13:17.775Z,26.41
2024-01-10T05:14:17.841Z,26.41
2024-01-10T05:15:17.796Z,26.41
2024-01-10T05:16:17.803Z,26.38
2024-01-10T05:17:17.955Z,26.36
2024-01-10T05:18:17.892Z,26.36
2024-01-10T05:19:17.990Z,26.35
2024-01-10T05:20:18.037Z,26.35
2024-01-10T05:21:18.018Z,26.33
2024-01-10T05:22:18.038Z,26.33
2024-01-10T05:23:18.175Z,26.31
2024-01-10T05:24:18.156Z,26.32
2024-01-10T05:25:18.202Z,26.30
2024-01-10T05:26:18.318Z,26.29
2024-01-10T05:27:18.309Z,26.26
2024-01-10T05:28:18.376Z,26.24
2024-01-10T05:29:18.544Z,26.21
2024-01-10T05:30:18.552Z,26.20
2024-01-10T05:31:18.566Z,26.19
2024-01-10T05:32:18.625Z,26.17
2024-01-10T05:33:18.777Z,26.18
2024-01-10T05:34:18.764Z,26.19
2024-01-10T05:35:18.768Z,26.20
2024-01-10T05:36:18.809Z,26.21
2024-01-10T05:37:18.859Z,26.23
2024-01-10T05:38:18.994Z,26.23
2024-01-10T05:39:18.924Z,26.25
2024-01-10T05:40:19.006Z,26.25
2024-01-10T05:41:19.218Z,26.25
2024-01-10T05:42:19.108Z,26.26
2024-01-10T05:43:19.122Z,26.26
2024-01-10T05:44:19.239Z,26.26
2024-01-10T05:45:19.367Z,26.26
2024-01-10T05:46:19.304Z,26.27
2024-01-10T05:47:19.417Z,26.27
2024-01-10T05:48:19.525Z,26.27
2024-01-10T05:49:19.456Z,26.27
2024-01-10T05:50:19.703Z,26.27
2024-01-10T05:51:19.550Z,26.28
2024-01-10T05:52:19.605Z,26.28
2024-01-10T05:53:19.712Z,26.28
2024-01-10T05:54:19.670Z,26.28
2024-01-10T05:55:19.749Z,26.27
2024-01-10T05:56:19.911Z,26.27
2024-01-10T05:57:19.940Z,26.27
2024-01-10T05:58:19.904Z,26.26
2024-01-10T05:59:20.023Z,26.25
2024-01-10T06:00:19.975Z,26.26
2024-01-10T06:01:20.151Z,26.26
2024-01-10T06:02:20.204Z,26.25
2024-01-10T06:03:20.257Z,26.25
2024-01-10T06:04:20.212Z,26.24
2024-01-10T06:05:20.269Z,26.23
2024-01-10T06:06:20.456Z,26.24
2024-01-10T06:07:20.354Z,26.23
2024-01-10T06:08:20.535Z,26.24
2024-01-10T06:09:20.515Z,26.23
2024-01-10T06:10:20.517Z,26.23
2024-01-10T06:11:20.604Z,26.23
2024-01-10T06:12:20.697Z,26.22
2024-01-10T06:13:20.684Z,26.22
2024-01-10T06:14:20.774Z,26.22
2024-01-10T06:15:20.787Z,26.20
2024-01-10T06:16:20.902Z,26.20
2024-01-10T06:17:20.964Z,26.20
2024-01-10T06:18:21.106Z,26.20
2024-01-10T06:19:21.060Z,26.19
2024-01-10T06:20:21.055Z,26.19
2024-01-10T06:21:21.054Z,26.19
2024-01-10T06:22:21.442Z,26.19
2024-01-10T06:23:21.253Z,26.19
2024-01-10T06:24:21.204Z,26.18
2024-01-10T06:25:21.303Z,26.18
2024-01-10T06:26:21.333Z,26.18
2024-01-10T06:27:21.392Z,26.17
2024-01-10T06:28:21.447Z,26.17
2024-01-10T06:29:21.623Z,26.16
2024-01-10T06:30:21.594Z,26.15
2024-01-10T06:31:21.627Z,26.16
2024-01-10T06:32:21.790Z,26.16
2024-01-10T06:33:21.862Z,26.12
2024-01-10T06:34:21.840Z,26.06
2024-01-10T06:35:21.862Z,25.94
2024-01-10T06:36:21.819Z,25.85
2024-01-10T06:37:21.829Z,25.76
2024-01-10T06:38:21.949Z,25.68
2024-01-10T06:39:21.962Z,25.61
2024-01-10T06:40:22.028Z,25.52
2024-01-10T06:41:22.069Z,25.37
2024-01-10T06:42:22.190Z,25.25
2024-01-10T06:43:22.120Z,25.08
2024-01-10T06:44:22.454Z,24.83
2024-01-10T06:45:22.252Z,24.25
2024-01-10T06:46:22.305Z,24.03
2024-01-10T06:47:22.746Z,23.98
2024-01-10T06:48:22.439Z,24.02
2024-01-10T06:49:22.944Z,24.12
2024-01-10T06:50:22.552Z,24.22
2024-01-10T06:51:22.582Z,24.34
2024-01-10T06:52:22.597Z,24.43
2024-01-10T06:53:22.743Z,24.53
2024-01-10T06:54:22.676Z,24.62
2024-01-10T06:55:22.719Z,24.70
2024-01-10T06:56:22.760Z,24.78
2024-01-10T06:57:22.777Z,24.84
2024-01-10T06:58:22.741Z,24.93
2024-01-10T06:59:22.881Z,25.01
2024-01-10T07:00:22.865Z,25.08
2024-01-10T07:01:22.946Z,25.15
2024-01-10T07:02:23.067Z,25.21
2024-01-10T07:03:23.128Z,25.26
2024-01-10T07:04:24.938Z,25.34
2024-01-10T07:05:23.244Z,25.41
2024-01-10T07:06:23.438Z,25.47
2024-01-10T07:07:23.306Z,25.50
2024-01-10T07:08:23.276Z,25.54
2024-01-10T07:09:23.417Z,25.58
2024-01-10T07:10:23.338Z,25.60
2024-01-10T07:11:23.726Z,25.63
2024-01-10T07:12:23.380Z,25.66
2024-01-10T07:13:23.407Z,25.69
2024-01-10T07:14:23.521Z,25.71
2024-01-10T07:15:23.549Z,25.73
2024-01-10T07:16:23.932Z,25.76
2024-01-10T07:17:23.500Z,25.80
2024-01-10T07:18:24.437Z,25.83
2024-01-10T07:19:23.720Z,25.85
2024-01-10T07:20:23.734Z,25.86
2024-01-10T07:21:23.902Z,25.89
2024-01-10T07:22:23.935Z,25.91
2024-01-10T07:23:26.507Z,25.93
2024-01-10T07:24:23.773Z,25.94
2024-01-10T07:25:23.850Z,25.96
2024-01-10T07:26:23.764Z,25.98
2024-01-10T07:27:23.668Z,26.00
2024-01-10T07:28:23.785Z,26.03
2024-01-10T07:29:23.784Z,26.05
2024-01-10T07:30:23.702Z,26.06
2024-01-10T07:31:24.433Z,26.07
2024-01-10T07:32:24.013Z,26.09
2024-01-10T07:33:23.995Z,26.11
2024-01-10T07:34:23.682Z,26.14
2024-01-10T07:35:23.763Z,26.17
2024-01-10T07:36:23.743Z,26.18
2024-01-10T07:37:25.011Z,26.06
2024-01-10T07:38:23.824Z,25.35
2024-01-10T07:39:23.824Z,24.35
2024-01-10T07:40:23.750Z,23.39
2024-01-10T07:41:23.992Z,22.47
2024-01-10T07:42:24.064Z,22.26
2024-01-10T07:43:23.722Z,22.36
2024-01-10T07:44:23.829Z,22.55
2024-01-10T07:45:23.940Z,22.77
2024-01-10T07:46:23.981Z,23.02
2024-01-10T07:47:23.739Z,23.24
2024-01-10T07:48:24.056Z,23.43
2024-01-10T07:49:23.766Z,23.63
2024-01-10T07:50:27.944Z,23.82
2024-01-10T07:51:23.847Z,23.99
2024-01-10T07:52:25.672Z,24.16
2024-01-10T07:53:24.052Z,24.32
2024-01-10T07:54:24.042Z,24.45
2024-01-10T07:55:23.736Z,24.57
2024-01-10T07:56:23.886Z,24.70
2024-01-10T07:57:24.171Z,24.82
2024-01-10T07:58:23.735Z,24.91
2024-01-10T07:59:23.791Z,25.02
2024-01-10T08:00:23.744Z,25.11
2024-01-10T08:01:23.896Z,25.19
2024-01-10T08:02:24.033Z,25.26
2024-01-10T08:03:25.834Z,25.34
2024-01-10T08:04:23.909Z,25.41
2024-01-10T08:05:24.158Z,25.48
2024-01-10T08:06:29.936Z,25.54
2024-01-10T08:07:26.999Z,25.60
2024-01-10T08:08:24.306Z,25.66
2024-01-10T08:09:24.012Z,25.72
2024-01-10T08:10:24.162Z,25.75
2024-01-10T08:11:24.109Z,25.79
2024-01-10T08:12:25.098Z,25.80
2024-01-10T08:13:26.119Z,25.85
2024-01-10T08:14:24.178Z,25.89
2024-01-10T08:15:24.048Z,25.95
2024-01-10T08:16:24.657Z,25.98
2024-01-10T08:17:24.123Z,26.02
2024-01-10T08:18:24.163Z,26.07
2024-01-10T08:19:25.137Z,26.09
2024-01-10T08:20:24.277Z,26.10
2024-01-10T08:21:24.433Z,26.11
2024-01-10T08:22:25.678Z,26.11
2024-01-10T08:23:24.438Z,26.13
2024-01-10T08:24:25.011Z,26.16
2024-01-10T08:25:24.132Z,26.19
2024-01-10T08:26:25.865Z,26.18
2024-01-10T08:27:24.162Z,26.21
2024-01-10T08:28:24.126Z,26.23
2024-01-10T08:29:24.793Z,26.24
2024-01-10T08:30:24.354Z,26.27
2024-01-10T08:31:24.128Z,26.24
2024-01-10T08:32:25.035Z,26.24
2024-01-10T08:33:24.153Z,26.26
2024-01-10T08:34:24.071Z,26.13
2024-01-10T08:35:27.860Z,26.01
2024-01-10T08:36:25.129Z,25.88
2024-01-10T08:37:24.508Z,25.78
2024-01-10T08:38:24.065Z,25.72
2024-01-10T08:39:24.273Z,25.69
2024-01-10T08:40:24.023Z,25.64
2024-01-10T08:41:26.033Z,25.63
2024-01-10T08:42:24.472Z,25.62
2024-01-10T08:43:24.024Z,25.64
2024-01-10T08:44:24.259Z,25.67
2024-01-10T08:45:26.546Z,25.73
2024-01-10T08:46:24.152Z,25.80
2024-01-10T08:47:24.996Z,25.83
2024-01-10T08:48:27.562Z,25.87
2024-01-10T08:49:40.184Z,25.91
2024-01-10T08:50:24.268Z,25.94
2024-01-10T08:51:24.139Z,25.99
2024-01-10T08:52:25.328Z,26.04
2024-01-10T08:53:25.301Z,26.07
2024-01-10T08:54:24.151Z,26.12
2024-01-10T08:55:24.137Z,26.15
2024-01-10T08:56:24.370Z,26.16
2024-01-10T08:57:25.454Z,26.17
2024-01-10T08:58:24.864Z,26.19
2024-01-10T08:59:27.824Z,26.21
2024-01-10T09:00:27.285Z,26.22
2024-01-10T09:01:25.117Z,26.23
2024-01-10T09:02:24.143Z,26.25
2024-01-10T09:03:24.577Z,26.27
2024-01-10T09:04:24.129Z,26.30
2024-01-10T09:05:24.402Z,26.33
2024-01-10T09:06:24.175Z,26.34
2024-01-10T09:07:24.371Z,26.35
2024-01-10T09:08:24.801Z,26.37
2024-01-10T09:09:24.129Z,26.39
2024-01-10T09:10:24.862Z,26.42
2024-01-10T09:11:25.343Z,26.42
2024-01-10T09:12:24.744Z,26.35
2024-01-10T09:13:25.424Z,26.26
2024-01-10T09:14:25.891Z,26.17
2024-01-10T09:15:24.630Z,26.09
2024-01-10T09:16:25.777Z,26.03
2024-01-10T09:17:25.123Z,26.00
2024-01-10T09:18:26.106Z,25.99
2024-01-10T09:19:24.672Z,25.99
2024-01-10T09:20:35.015Z,26.00
2024-01-10T09:21:28.627Z,26.02
2024-01-10T09:22:32.348Z,26.02
2024-01-10T09:23:32.611Z,26.07
2024-01-10T09:24:32.210Z,26.09
2024-01-10T09:25:34.124Z,26.13
2024-01-10T09:26:32.256Z,26.09
2024-01-10T09:27:33.502Z,26.06
2024-01-10T09:28:32.354Z,25.98
2024-01-10T09:29:32.396Z,25.87
2024-01-10T09:30:33.358Z,25.75
2024-01-10T09:31:32.469Z,25.45
2024-01-10T09:32:32.635Z,25.16
2024-01-10T09:33:32.695Z,24.85
2024-01-10T09:34:32.469Z,23.70
2024-01-10T09:35:32.705Z,22.08
2024-01-10T09:36:32.664Z,20.70
2024-01-10T09:37:32.757Z,19.66
2024-01-10T09:38:32.743Z,18.96
2024-01-10T09:39:32.742Z,18.45
2024-01-10T09:40:32.779Z,18.59
2024-01-10T09:41:32.988Z,18.96
2024-01-10T09:42:39.484Z,19.39
2024-01-10T09:43:33.527Z,19.82
2024-01-10T09:44:32.985Z,20.27
2024-01-10T09:45:33.395Z,20.71
2024-01-10T09:46:32.852Z,21.13
2024-01-10T09:47:33.781Z,21.50
2024-01-10T09:48:37.755Z,21.85
2024-01-10T09:49:33.624Z,22.15
2024-01-10T09:50:34.764Z,22.45
2024-01-10T09:51:33.054Z,22.72
2024-01-10T09:52:33.137Z,22.98
2024-01-10T09:53:33.828Z,23.20
2024-01-10T09:54:34.608Z,23.41
2024-01-10T09:55:34.029Z,23.61
2024-01-10T09:56:33.598Z,23.79
2024-01-10T09:57:34.786Z,23.95
2024-01-10T09:58:34.092Z,24.10
2024-01-10T09:59:35.539Z,24.23
2024-01-10T10:00:35.155Z,24.35
2024-01-10T10:01:33.366Z,24.46
2024-01-10T10:02:33.222Z,24.57
2024-01-10T10:03:33.820Z,24.68
2024-01-10T10:04:33.062Z,24.77
2024-01-10T10:05:35.052Z,24.85
2024-01-10T10:06:33.176Z,24.94
2024-01-10T10:07:33.027Z,25.03
2024-01-10T10:08:35.397Z,25.10
2024-01-10T10:09:32.987Z,25.16
2024-01-10T10:10:33.037Z,25.22
2024-01-10T10:11:34.131Z,25.28
2024-01-10T10:12:33.825Z,25.32
2024-01-10T10:13:33.002Z,25.38
2024-01-10T10:14:34.284Z,25.42
2024-01-10T10:15:37.529Z,25.47
2024-01-10T10:16:35.899Z,25.50
2024-01-10T10:17:34.548Z,25.54
2024-01-10T10:18:33.582Z,25.60
2024-01-10T10:19:40.377Z,25.65
2024-01-10T10:20:35.490Z,25.67
2024-01-10T10:21:34.405Z,25.70
2024-01-10T10:22:34.094Z,25.74
2024-01-10T10:23:33.582Z,25.77
2024-01-10T10:24:38.770Z,25.81
2024-01-10T10:25:38.841Z,25.83
2024-01-10T10:26:34.607Z,25.81
2024-01-10T10:27:35.189Z,25.80
2024-01-10T10:28:36.130Z,25.77
2024-01-10T10:29:33.118Z,25.60
2024-01-10T10:30:33.629Z,25.45
2024-01-10T10:31:33.089Z,25.13
2024-01-10T10:32:34.511Z,24.46
2024-01-10T10:33:34.168Z,23.42
2024-01-10T10:34:33.080Z,23.16
2024-01-10T10:35:38.340Z,23.15
2024-01-10T10:36:34.399Z,23.25
2024-01-10T10:37:39.812Z,23.39
2024-01-10T10:38:33.073Z,23.55
2024-01-10T10:39:33.049Z,23.73
2024-01-10T10:40:33.894Z,23.89
2024-01-10T10:41:35.100Z,24.05
2024-01-10T10:42:33.007Z,24.18
2024-01-10T10:43:33.166Z,24.33
2024-01-10T10:44:33.075Z,24.48
2024-01-10T10:45:33.295Z,24.62
2024-01-10T10:46:33.140Z,24.74
2024-01-10T10:47:33.144Z,24.83
2024-01-10T10:48:34.783Z,24.94
2024-01-10T10:49:33.136Z,25.03
2024-01-10T10:50:33.097Z,25.11
2024-01-10T10:51:34.649Z,25.18
2024-01-10T10:52:33.191Z,25.25
2024-01-10T10:53:33.318Z,25.33
2024-01-10T10:54:33.230Z,25.39
2024-01-10T10:55:33.291Z,25.46
2024-01-10T10:56:34.300Z,25.52
2024-01-10T10:57:33.871Z,25.57
2024-01-10T10:58:33.430Z,25.61
2024-01-10T10:59:33.469Z,25.66
2024-01-10T11:00:33.449Z,25.71
2024-01-10T11:01:33.491Z,25.76
2024-01-10T11:02:34.029Z,25.80
2024-01-10T11:03:33.570Z,25.84
2024-01-10T11:04:33.698Z,25.87
2024-01-10T11:05:33.679Z,25.91
2024-01-10T11:06:33.718Z,25.94
2024-01-10T11:07:33.646Z,25.96
2024-01-10T11:08:33.676Z,25.99
2024-01-10T11:09:33.796Z,26.02
2024-01-10T11:10:35.168Z,26.04
2024-01-10T11:11:33.812Z,26.07
2024-01-10T11:12:33.881Z,26.10
2024-01-10T11:13:33.951Z,26.12
2024-01-10T11:14:34.401Z,26.15
2024-01-10T11:15:34.146Z,26.17
2024-01-10T11:16:35.091Z,26.19
2024-01-10T11:17:34.992Z,26.20
2024-01-10T11:18:34.381Z,26.24
2024-01-10T11:19:34.426Z,26.27
2024-01-10T11:20:34.490Z,26.28
2024-01-10T11:21:35.186Z,26.30
2024-01-10T11:22:34.639Z,26.32
2024-01-10T11:23:34.812Z,26.34
2024-01-10T11:24:34.888Z,26.36
2024-01-10T11:25:34.675Z,26.34
2024-01-10T11:26:35.216Z,26.34
2024-01-10T11:27:34.850Z,26.34
2024-01-10T11:28:36.611Z,26.08
2024-01-10T11:29:38.460Z,25.52
2024-01-10T11:30:35.209Z,25.24
2024-01-10T11:31:35.350Z,25.09
2024-01-10T11:32:36.418Z,25.09
2024-01-10T11:33:35.940Z,25.14
2024-01-10T11:34:35.115Z,25.20
2024-01-10T11:35:35.327Z,25.27
2024-01-10T11:36:36.262Z,25.33
2024-01-10T11:37:35.063Z,25.40
2024-01-10T11:38:35.630Z,25.47
2024-01-10T11:39:35.122Z,25.54
2024-01-10T11:40:35.668Z,25.61
2024-01-10T11:41:35.375Z,25.67
2024-01-10T11:42:35.226Z,25.74
2024-01-10T11:43:35.287Z,25.78
2024-01-10T11:44:35.739Z,25.83
2024-01-10T11:45:35.579Z,25.88
2024-01-10T11:46:35.423Z,25.92
2024-01-10T11:47:35.835Z,25.96
2024-01-10T11:48:35.583Z,26.01
2024-01-10T11:49:35.540Z,26.03
2024-01-10T11:50:36.811Z,26.06
2024-01-10T11:51:35.957Z,26.10
2024-01-10T11:52:35.958Z,26.13
2024-01-10T11:53:35.840Z,26.14
2024-01-10T11:54:37.082Z,26.17
2024-01-10T11:55:36.364Z,26.19
2024-01-10T11:56:42.808Z,26.21
2024-01-10T11:57:37.020Z,26.23
2024-01-10T11:58:35.939Z,26.24
2024-01-10T11:59:36.413Z,26.26
2024-01-10T12:00:36.003Z,26.27
2024-01-10T12:01:36.122Z,26.30
2024-01-10T12:02:35.972Z,26.32
2024-01-10T12:03:40.421Z,26.33
2024-01-10T12:04:45.257Z,26.33
2024-01-10T12:05:37.103Z,26.35
2024-01-10T12:06:37.017Z,26.36
2024-01-10T12:07:36.006Z,26.38
2024-01-10T12:08:36.035Z,26.38
2024-01-10T12:09:35.988Z,26.41
2024-01-10T12:10:36.814Z,26.43
2024-01-10T12:11:35.966Z,26.44
2024-01-10T12:12:36.495Z,26.44
2024-01-10T12:13:37.052Z,26.44
2024-01-10T12:14:36.931Z,26.43
2024-01-10T12:15:37.015Z,26.43
2024-01-10T12:16:35.994Z,26.43
2024-01-10T12:17:36.225Z,26.43
2024-01-10T12:18:36.023Z,26.43
2024-01-10T12:19:36.006Z,26.43
2024-01-10T12:20:35.948Z,26.43
2024-01-10T12:21:35.994Z,26.42
2024-01-10T12:22:35.987Z,26.44
2024-01-10T12:23:35.998Z,26.48
2024-01-10T12:24:36.006Z,26.51
2024-01-10T12:25:36.028Z,26.52
2024-01-10T12:26:35.984Z,26.53
2024-01-10T12:27:36.036Z,26.56
2024-01-10T12:28:36.055Z,26.58
2024-01-10T12:29:36.034Z,26.58
2024-01-10T12:30:36.109Z,26.59
2024-01-10T12:31:36.108Z,26.59
2024-01-10T12:32:36.339Z,26.59
2024-01-10T12:33:36.231Z,26.59
2024-01-10T12:34:36.211Z,26.59
2024-01-10T12:35:36.224Z,26.60
2024-01-10T12:36:36.441Z,26.59
2024-01-10T12:37:36.309Z,26.60
2024-01-10T12:38:36.364Z,26.59
2024-01-10T12:39:36.460Z,26.60
2024-01-10T12:40:36.497Z,26.59
2024-01-10T12:41:36.567Z,26.60
2024-01-10T12:42:36.573Z,26.60
2024-01-10T12:43:36.626Z,26.60
2024-01-10T12:44:36.709Z,26.60
2024-01-10T12:45:36.758Z,26.61
2024-01-10T12:46:36.770Z,26.61
2024-01-10T12:47:37.064Z,26.60
2024-01-10T12:48:36.999Z,26.59
2024-01-10T12:49:36.870Z,26.59
2024-01-10T12:50:37.019Z,26.60
2024-01-10T12:51:36.968Z,26.60
2024-01-10T12:52:37.018Z,26.60
2024-01-10T12:53:37.053Z,26.61